CPX260 Details

Departure: General Edward Lawrence Logan International Airport (KBOS)
Arrival: Washington Dulles International Airport (KIAD)
Route: BLZZR4 BLZZR BAF HYPER7


Current Weather Information
KBOS 190654Z 29007KT 10SM FEW060 02/M12 A3031 RMK AO2 SLP264 T00171122
KIAD 190652Z 32004KT 10SM CLR M02/M08 A3039 RMK AO2 SLP292 T10171078